| time (UTC) | temp F | wind direction | speed MPH | gust MPH | rain 1hr in | rain 24hr in | rain mn in | humidity % | barometer mb |
| 20260508204535 | 69 | 196 | 5.0 | 8.0 | 0.00 | 0.00 | 0.00 | 50 | 1014.6 |
| 20260508204031 | 70 | 186 | 5.0 | 7.0 | 0.00 | 0.00 | 0.00 | 51 | 1014.7 |
| 20260508203527 | 70 | 202 | 5.0 | 8.0 | 0.00 | 0.00 | 0.00 | 50 | 1014.6 |
| 20260508203023 | 70 | 146 | 4.0 | 5.0 | 0.00 | 0.00 | 0.00 | 49 | 1014.7 |
| 20260508202520 | 69 | 170 | 4.0 | 6.0 | 0.00 | 0.00 | 0.00 | 49 | 1014.8 |
| 20260508202017 | 70 | 208 | 6.0 | 7.0 | 0.00 | 0.00 | 0.00 | 47 | 1014.5 |
| 20260508201514 | 70 | 160 | 6.0 | 10.0 | 0.00 | 0.00 | 0.00 | 49 | 1014.6 |
| 20260508201011 | 70 | 177 | 3.0 | 7.0 | 0.00 | 0.00 | 0.00 | 50 | 1014.8 |
| 20260508200508 | 69 | 242 | 4.0 | 7.0 | 0.00 | 0.00 | 0.00 | 50 | 1015.0 |
| 20260508200003 | 70 | 174 | 7.0 | 9.0 | 0.00 | 0.00 | 0.00 | 46 | 1015.1 |
| 20260508195500 | 71 | 234 | 3.0 | 6.0 | 0.00 | 0.00 | 0.00 | 47 | 1015.0 |
| 20260508194956 | 70 | 174 | 1.0 | 2.0 | 0.00 | 0.00 | 0.00 | 49 | 1015.2 |
| 20260508194454 | 69 | 192 | 0.0 | 2.0 | 0.00 | 0.00 | 0.00 | 48 | 1015.4 |
| 20260508193950 | 70 | 221 | 5.0 | 7.0 | 0.00 | 0.00 | 0.00 | 46 | 1015.2 |
| 20260508193447 | 70 | 283 | 3.0 | 7.0 | 0.00 | 0.00 | 0.00 | 47 | 1015.4 |
| 20260508192943 | 70 | 208 | 2.0 | 5.0 | 0.00 | 0.00 | 0.00 | 48 | 1015.8 |
| 20260508192440 | 69 | 161 | 6.0 | 8.0 | 0.00 | 0.00 | 0.00 | 46 | 1015.7 |
| 20260508191937 | 69 | 242 | 3.0 | 7.0 | 0.00 | 0.00 | 0.00 | 48 | 1015.8 |
| 20260508191435 | 71 | 175 | 4.0 | 9.0 | 0.00 | 0.00 | 0.00 | 47 | 1015.9 |
| 20260508190931 | 70 | 230 | 2.0 | 5.0 | 0.00 | 0.00 | 0.00 | 46 | 1015.7 |
| 20260508190428 | 71 | 250 | 6.0 | 9.0 | 0.00 | 0.00 | 0.00 | 46 | 1015.9 |
| 20260508185925 | 70 | 239 | 1.0 | 1.0 | 0.00 | 0.00 | 0.00 | 45 | 1016.1 |
| 20260508185422 | 69 | 212 | 2.0 | 8.0 | 0.00 | 0.00 | 0.00 | 49 | 1015.9 |
| 20260508184919 | 70 | 311 | 6.0 | 8.0 | 0.00 | 0.00 | 0.00 | 47 | 1016.2 |
| 20260508184417 | 70 | 322 | 5.0 | 6.0 | 0.00 | 0.00 | 0.00 | 48 | 1016.1 |
| 20260508183913 | 69 | 248 | 4.0 | 5.0 | 0.00 | 0.00 | 0.00 | 47 | 1016.3 |
| 20260508183410 | 69 | 219 | 4.0 | 6.0 | 0.00 | 0.00 | 0.00 | 47 | 1016.5 |
| 20260508182905 | 68 | 156 | 6.0 | 10.0 | 0.00 | 0.00 | 0.00 | 48 | 1016.6 |
| 20260508182403 | 69 | 251 | 3.0 | 6.0 | 0.00 | 0.00 | 0.00 | 48 | 1016.5 |
| 20260508181858 | 70 | 168 | 3.0 | 3.0 | 0.00 | 0.00 | 0.00 | 46 | 1016.8 |
| 20260508181355 | 70 | 218 | 1.0 | 5.0 | 0.00 | 0.00 | 0.00 | 48 | 1016.6 |
| 20260508180852 | 70 | 259 | 2.0 | 8.0 | 0.00 | 0.00 | 0.00 | 49 | 1016.8 |
| 20260508180349 | 70 | 229 | 4.0 | 8.0 | 0.00 | 0.00 | 0.00 | 48 | 1016.9 |
| 20260508175844 | 68 | 317 | 5.0 | 7.0 | 0.00 | 0.00 | 0.00 | 52 | 1016.8 |
| 20260508175341 | 68 | 207 | 4.0 | 6.0 | 0.00 | 0.00 | 0.00 | 49 | 1016.9 |
| 20260508174840 | 68 | 217 | 4.0 | 7.0 | 0.00 | 0.00 | 0.00 | 48 | 1016.8 |
| 20260508174337 | 67 | 303 | 1.0 | 3.0 | 0.00 | 0.00 | 0.00 | 51 | 1016.8 |
| 20260508173833 | 66 | 335 | 4.0 | 6.0 | 0.00 | 0.00 | 0.00 | 53 | 1016.9 |
| 20260508173331 | 67 | 202 | 1.0 | 3.0 | 0.00 | 0.00 | 0.00 | 51 | 1017.0 |
| 20260508172826 | 68 | 176 | 5.0 | 8.0 | 0.00 | 0.00 | 0.00 | 47 | 1017.3 |
| 20260508172323 | 68 | 209 | 7.0 | 7.0 | 0.00 | 0.00 | 0.00 | 46 | 1017.3 |
| 20260508171820 | 68 | 129 | 3.0 | 8.0 | 0.00 | 0.00 | 0.00 | 49 | 1017.4 |
| 20260508171316 | 66 | 174 | 4.0 | 7.0 | 0.00 | 0.00 | 0.00 | 52 | 1017.5 |
| 20260508170813 | 66 | 171 | 5.0 | 6.0 | 0.00 | 0.00 | 0.00 | 50 | 1017.5 |
| 20260508170311 | 67 | 204 | 4.0 | 8.0 | 0.00 | 0.00 | 0.00 | 48 | 1017.5 |
| 20260508165808 | 68 | 0 | 2.0 | 2.0 | 0.00 | 0.00 | 0.00 | 48 | 1017.6 |
| 20260508165306 | 68 | 241 | 2.0 | 5.0 | 0.00 | 0.00 | 0.00 | 50 | 1017.7 |
| 20260508164801 | 69 | 213 | 4.0 | 6.0 | 0.00 | 0.00 | 0.00 | 48 | 1017.8 |
| 20260508164257 | 68 | 188 | 3.0 | 5.0 | 0.00 | 0.00 | 0.00 | 48 | 1017.8 |
| 20260508163755 | 68 | 141 | 3.0 | 6.0 | 0.00 | 0.00 | 0.00 | 50 | 1018.0 |
| 20260508163254 | 67 | 135 | 1.0 | 5.0 | 0.00 | 0.00 | 0.00 | 51 | 1017.9 |
| 20260508162748 | 67 | 191 | 6.0 | 7.0 | 0.00 | 0.00 | 0.00 | 51 | 1018.0 |
| 20260508162246 | 67 | 235 | 4.0 | 7.0 | 0.00 | 0.00 | 0.00 | 50 | 1018.1 |
| 20260508161743 | 67 | 237 | 0.0 | 7.0 | 0.00 | 0.00 | 0.00 | 53 | 1018.1 |
| 20260508161240 | 67 | 213 | 3.0 | 6.0 | 0.00 | 0.00 | 0.00 | 51 | 1018.1 |
| 20260508160738 | 66 | 111 | 3.0 | 6.0 | 0.00 | 0.00 | 0.00 | 50 | 1018.2 |
| 20260508160237 | 66 | 197 | 4.0 | 6.0 | 0.00 | 0.00 | 0.00 | 51 | 1018.1 |
| 20260508155732 | 66 | 239 | 3.0 | 7.0 | 0.00 | 0.00 | 0.00 | 54 | 1018.3 |
| 20260508155229 | 67 | 147 | 5.0 | 7.0 | 0.00 | 0.00 | 0.00 | 52 | 1018.4 |
| 20260508154726 | 66 | 236 | 4.0 | 6.0 | 0.00 | 0.00 | 0.00 | 55 | 1018.6 |
| 20260508154223 | 66 | 192 | 1.0 | 3.0 | 0.00 | 0.00 | 0.00 | 52 | 1018.4 |
| 20260508153720 | 65 | 169 | 0.0 | 3.0 | 0.00 | 0.00 | 0.00 | 54 | 1018.4 |
| 20260508153217 | 65 | 128 | 0.0 | 1.0 | 0.00 | 0.00 | 0.00 | 56 | 1018.5 |
| 20260508152714 | 66 | 308 | 4.0 | 6.0 | 0.00 | 0.00 | 0.00 | 53 | 1018.5 |
| 20260508152209 | 67 | 320 | 3.0 | 5.0 | 0.00 | 0.00 | 0.00 | 53 | 1018.5 |
| 20260508151706 | 66 | 98 | 2.0 | 3.0 | 0.00 | 0.00 | 0.00 | 54 | 1018.6 |
| 20260508151203 | 65 | 91 | 2.0 | 3.0 | 0.00 | 0.00 | 0.00 | 54 | 1018.6 |
| 20260508150659 | 65 | 163 | 2.0 | 5.0 | 0.00 | 0.00 | 0.00 | 55 | 1018.5 |
| 20260508150156 | 65 | 9 | 3.0 | 5.0 | 0.00 | 0.00 | 0.00 | 55 | 1018.6 |
| 20260508145652 | 65 | 15 | 3.0 | 5.0 | 0.00 | 0.00 | 0.00 | 57 | 1018.3 |
| 20260508145148 | 65 | 303 | 2.0 | 3.0 | 0.00 | 0.00 | 0.00 | 57 | 1018.4 |
| 20260508144646 | 65 | 19 | 3.0 | 5.0 | 0.00 | 0.00 | 0.00 | 58 | 1018.5 |
| 20260508144144 | 64 | 80 | 1.0 | 2.0 | 0.00 | 0.00 | 0.00 | 58 | 1018.5 |
| 20260508143641 | 63 | 106 | 1.0 | 6.0 | 0.00 | 0.00 | 0.00 | 57 | 1018.7 |
| 20260508143138 | 63 | 192 | 3.0 | 5.0 | 0.00 | 0.00 | 0.00 | 57 | 1018.7 |
| 20260508142634 | 63 | 313 | 2.0 | 3.0 | 0.00 | 0.00 | 0.00 | 58 | 1018.6 |
| 20260508142131 | 64 | 153 | 0.0 | 5.0 | 0.00 | 0.00 | 0.00 | 55 | 1018.8 |
| 20260508141627 | 63 | 11 | 2.0 | 5.0 | 0.00 | 0.00 | 0.00 | 56 | 1018.7 |
| 20260508141125 | 63 | 186 | 5.0 | 6.0 | 0.00 | 0.00 | 0.00 | 59 | 1018.7 |
| 20260508140622 | 63 | 167 | 3.0 | 5.0 | 0.00 | 0.00 | 0.00 | 60 | 1018.9 |
| 20260508140119 | 64 | 26 | 1.0 | 3.0 | 0.00 | 0.00 | 0.00 | 61 | 1018.9 |
| 20260508135614 | 63 | 141 | 1.0 | 5.0 | 0.00 | 0.00 | 0.00 | 61 | 1018.6 |
| 20260508135111 | 63 | 152 | 2.0 | 2.0 | 0.00 | 0.00 | 0.00 | 61 | 1018.9 |
| 20260508134608 | 62 | 89 | 1.0 | 1.0 | 0.00 | 0.00 | 0.00 | 60 | 1018.8 |
| 20260508134105 | 61 | 94 | 1.0 | 2.0 | 0.00 | 0.00 | 0.00 | 62 | 1018.6 |
| 20260508133602 | 61 | 211 | 2.0 | 3.0 | 0.00 | 0.00 | 0.00 | 63 | 1018.5 |
| 20260508133059 | 61 | 240 | 2.0 | 6.0 | 0.00 | 0.00 | 0.00 | 64 | 1018.6 |
| 20260508132556 | 61 | 134 | 2.0 | 5.0 | 0.00 | 0.00 | 0.00 | 64 | 1018.6 |
| 20260508132053 | 61 | 250 | 2.0 | 5.0 | 0.00 | 0.00 | 0.00 | 65 | 1018.6 |
| 20260508131548 | 60 | 18 | 1.0 | 2.0 | 0.00 | 0.00 | 0.00 | 66 | 1018.7 |
| 20260508131045 | 60 | 334 | 2.0 | 2.0 | 0.00 | 0.00 | 0.00 | 68 | 1018.8 |
| 20260508130542 | 59 | 28 | 2.0 | 3.0 | 0.00 | 0.00 | 0.00 | 73 | 1018.7 |
| 20260508130039 | 59 | 251 | 2.0 | 2.0 | 0.00 | 0.00 | 0.00 | 78 | 1018.4 |
| 20260508125534 | 59 | 15 | 1.0 | 2.0 | 0.00 | 0.00 | 0.00 | 83 | 1018.7 |
| 20260508125032 | 59 | 315 | 1.0 | 1.0 | 0.00 | 0.00 | 0.00 | 85 | 1018.7 |
| 20260508124530 | 58 | 335 | 1.0 | 2.0 | 0.00 | 0.00 | 0.00 | 86 | 1018.5 |
| 20260508124027 | 57 | 166 | 1.0 | 1.0 | 0.00 | 0.00 | 0.00 | 87 | 1018.5 |
| 20260508123526 | 57 | 136 | 1.0 | 1.0 | 0.00 | 0.00 | 0.00 | 88 | 1018.3 |
| 20260508123022 | 56 | 120 | 0.0 | 1.0 | 0.00 | 0.00 | 0.00 | 88 | 1018.2 |
| 20260508122519 | 56 | 122 | 0.0 | 1.0 | 0.00 | 0.00 | 0.00 | 88 | 1018.2 |
| 20260508122016 | 55 | 167 | 1.0 | 1.0 | 0.00 | 0.00 | 0.00 | 88 | 1018.2 |
| 20260508121514 | 54 | 116 | 1.0 | 1.0 | 0.00 | 0.00 | 0.00 | 89 | 1018.3 |
| 20260508121012 | 53 | 274 | 1.0 | 2.0 | 0.00 | 0.00 | 0.00 | 89 | 1018.1 |
| 20260508120509 | 53 | 156 | 0.0 | 1.0 | 0.00 | 0.00 | 0.00 | 89 | 1017.8 |
| 20260508120007 | 53 | 359 | 1.0 | 1.0 | 0.00 | 0.00 | 0.00 | 89 | 1017.9 |
| 20260508115504 | 52 | 104 | 0.0 | 0.0 | 0.00 | 0.00 | 0.00 | 89 | 1017.7 |
| 20260508115001 | 51 | 124 | 0.0 | 0.0 | 0.00 | 0.00 | 0.00 | 89 | 1017.8 |
| 20260508114458 | 50 | 126 | 0.0 | 0.0 | 0.00 | 0.00 | 0.00 | 89 | 1017.6 |
| 20260508113954 | 50 | 151 | 0.0 | 0.0 | 0.00 | 0.00 | 0.00 | 89 | 1017.8 |
| 20260508113452 | 48 | 12 | 0.0 | 0.0 | 0.00 | 0.00 | 0.00 | 89 | 1017.7 |
| 20260508112949 | 47 | 24 | 0.0 | 0.0 | 0.00 | 0.00 | 0.00 | 89 | 1017.6 |
| 20260508112445 | 46 | 27 | 0.0 | 0.0 | 0.00 | 0.00 | 0.00 | 89 | 1017.5 |
| 20260508111942 | 45 | 41 | 0.0 | 0.0 | 0.00 | 0.00 | 0.00 | 89 | 1017.2 |
| 20260508111439 | 45 | 349 | 0.0 | 0.0 | 0.00 | 0.00 | 0.00 | 89 | 1017.3 |
| 20260508110936 | 45 | 259 | 0.0 | 0.0 | 0.00 | 0.00 | 0.00 | 89 | 1017.3 |
| 20260508110434 | 45 | 266 | 0.0 | 0.0 | 0.00 | 0.00 | 0.00 | 89 | 1017.2 |
| 20260508105933 | 44 | 197 | 0.0 | 0.0 | 0.00 | 0.00 | 0.00 | 89 | 1016.9 |
| 20260508105430 | 44 | 196 | 0.0 | 1.0 | 0.00 | 0.00 | 0.00 | 89 | 1017.0 |
| 20260508104927 | 44 | 199 | 0.0 | 0.0 | 0.00 | 0.00 | 0.00 | 88 | 1017.0 |
| 20260508104425 | 44 | 199 | 0.0 | 0.0 | 0.00 | 0.00 | 0.00 | 88 | 1016.8 |
| 20260508103921 | 44 | 333 | 0.0 | 0.0 | 0.00 | 0.00 | 0.00 | 88 | 1016.6 |
| 20260508103418 | 44 | 344 | 1.0 | 2.0 | 0.00 | 0.00 | 0.00 | 88 | 1016.6 |
| 20260508102915 | 44 | 214 | 0.0 | 1.0 | 0.00 | 0.00 | 0.00 | 88 | 1016.5 |
| 20260508102414 | 45 | 192 | 0.0 | 0.0 | 0.00 | 0.00 | 0.00 | 88 | 1016.5 |
| 20260508101911 | 44 | 192 | 0.0 | 0.0 | 0.00 | 0.00 | 0.00 | 88 | 1016.2 |
| 20260508101408 | 44 | 193 | 0.0 | 0.0 | 0.00 | 0.00 | 0.00 | 88 | 1016.0 |
| 20260508100905 | 45 | 191 | 0.0 | 0.0 | 0.00 | 0.00 | 0.00 | 88 | 1016.0 |
| 20260508100404 | 45 | 192 | 0.0 | 0.0 | 0.00 | 0.00 | 0.00 | 88 | 1016.0 |
| 20260508095859 | 45 | 204 | 0.0 | 0.0 | 0.00 | 0.00 | 0.00 | 88 | 1016.1 |
| 20260508095358 | 45 | 184 | 0.0 | 0.0 | 0.00 | 0.00 | 0.00 | 88 | 1016.1 |
| 20260508094854 | 45 | 201 | 0.0 | 0.0 | 0.00 | 0.00 | 0.00 | 88 | 1016.0 |
| 20260508094351 | 45 | 180 | 0.0 | 0.0 | 0.00 | 0.00 | 0.00 | 88 | 1015.9 |
| 20260508093848 | 46 | 178 | 0.0 | 0.0 | 0.00 | 0.00 | 0.00 | 88 | 1015.9 |
| 20260508093345 | 46 | 120 | 0.0 | 1.0 | 0.00 | 0.00 | 0.00 | 87 | 1016.1 |
| 20260508092843 | 46 | 323 | 1.0 | 2.0 | 0.00 | 0.00 | 0.00 | 88 | 1016.1 |
| 20260508092341 | 46 | 200 | 0.0 | 1.0 | 0.00 | 0.00 | 0.00 | 88 | 1015.9 |
| 20260508091838 | 47 | 159 | 0.0 | 1.0 | 0.00 | 0.00 | 0.00 | 87 | 1015.7 |
| 20260508091335 | 47 | 57 | 0.0 | 0.0 | 0.00 | 0.00 | 0.00 | 87 | 1015.9 |
| 20260508090833 | 47 | 227 | 0.0 | 2.0 | 0.00 | 0.00 | 0.00 | 87 | 1016.2 |
| 20260508090331 | 47 | 36 | 0.0 | 2.0 | 0.00 | 0.00 | 0.00 | 87 | 1015.7 |
| 20260508085826 | 47 | 187 | 0.0 | 0.0 | 0.00 | 0.00 | 0.00 | 87 | 1015.7 |
| 20260508085323 | 47 | 213 | 0.0 | 1.0 | 0.00 | 0.00 | 0.00 | 87 | 1015.8 |
| 20260508084820 | 47 | 179 | 0.0 | 0.0 | 0.00 | 0.00 | 0.00 | 87 | 1015.8 |
| 20260508084317 | 48 | 336 | 2.0 | 2.0 | 0.00 | 0.00 | 0.00 | 87 | 1015.5 |
| 20260508083814 | 48 | 21 | 0.0 | 2.0 | 0.00 | 0.00 | 0.00 | 87 | 1015.6 |
| 20260508083312 | 48 | 153 | 1.0 | 1.0 | 0.00 | 0.00 | 0.00 | 87 | 1015.4 |
| 20260508082811 | 48 | 175 | 0.0 | 1.0 | 0.00 | 0.00 | 0.00 | 87 | 1015.6 |
| 20260508082309 | 48 | 174 | 0.0 | 1.0 | 0.00 | 0.00 | 0.00 | 87 | 1015.6 |
| 20260508081806 | 48 | 161 | 0.0 | 1.0 | 0.00 | 0.00 | 0.00 | 87 | 1015.4 |
| 20260508081303 | 48 | 181 | 0.0 | 0.0 | 0.00 | 0.00 | 0.00 | 87 | 1015.3 |
| 20260508080800 | 48 | 164 | 0.0 | 0.0 | 0.00 | 0.00 | 0.00 | 87 | 1015.4 |
| 20260508080258 | 48 | 182 | 1.0 | 2.0 | 0.00 | 0.00 | 0.00 | 87 | 1015.1 |
| 20260508075754 | 48 | 175 | 0.0 | 0.0 | 0.00 | 0.00 | 0.00 | 87 | 1015.5 |
| 20260508075251 | 48 | 188 | 0.0 | 0.0 | 0.00 | 0.00 | 0.00 | 87 | 1015.3 |
| 20260508074749 | 48 | 182 | 0.0 | 0.0 | 0.00 | 0.00 | 0.00 | 87 | 1015.3 |
| 20260508074246 | 48 | 181 | 0.0 | 0.0 | 0.00 | 0.00 | 0.00 | 87 | 1015.3 |
| 20260508073743 | 48 | 173 | 0.0 | 0.0 | 0.00 | 0.00 | 0.00 | 87 | 1015.1 |
| 20260508073241 | 48 | 166 | 0.0 | 0.0 | 0.00 | 0.00 | 0.00 | 87 | 1015.1 |
| 20260508072736 | 48 | 181 | 0.0 | 0.0 | 0.00 | 0.00 | 0.00 | 87 | 1015.0 |
| 20260508072233 | 48 | 170 | 0.0 | 0.0 | 0.00 | 0.00 | 0.00 | 87 | 1015.1 |
| 20260508071731 | 48 | 203 | 0.0 | 0.0 | 0.00 | 0.00 | 0.00 | 87 | 1015.2 |
| 20260508071229 | 48 | 167 | 0.0 | 0.0 | 0.00 | 0.00 | 0.00 | 87 | 1015.0 |
| 20260508070726 | 48 | 201 | 0.0 | 0.0 | 0.00 | 0.00 | 0.00 | 87 | 1015.0 |
| 20260508070225 | 48 | 172 | 0.0 | 0.0 | 0.00 | 0.00 | 0.00 | 87 | 1015.0 |
| 20260508065722 | 48 | 195 | 0.0 | 0.0 | 0.00 | 0.00 | 0.00 | 87 | 1015.0 |
| 20260508065220 | 48 | 270 | 0.0 | 0.0 | 0.00 | 0.00 | 0.00 | 87 | 1014.9 |
| 20260508064717 | 48 | 204 | 0.0 | 0.0 | 0.00 | 0.00 | 0.00 | 87 | 1015.1 |
| 20260508064215 | 48 | 165 | 0.0 | 0.0 | 0.00 | 0.00 | 0.00 | 87 | 1015.1 |
| 20260508063712 | 49 | 185 | 0.0 | 0.0 | 0.00 | 0.00 | 0.00 | 87 | 1014.9 |
| 20260508063210 | 49 | 199 | 0.0 | 0.0 | 0.00 | 0.00 | 0.00 | 86 | 1014.9 |
| 20260508062707 | 49 | 182 | 0.0 | 0.0 | 0.00 | 0.00 | 0.00 | 86 | 1015.0 |
| 20260508062204 | 49 | 182 | 0.0 | 0.0 | 0.00 | 0.00 | 0.00 | 86 | 1014.8 |
| 20260508061701 | 49 | 181 | 0.0 | 0.0 | 0.00 | 0.00 | 0.00 | 86 | 1014.8 |
| 20260508061159 | 49 | 193 | 0.0 | 1.0 | 0.00 | 0.00 | 0.00 | 86 | 1014.9 |
| 20260508060655 | 50 | 197 | 0.0 | 0.0 | 0.00 | 0.00 | 0.00 | 86 | 1014.9 |
| 20260508060153 | 50 | 199 | 0.0 | 1.0 | 0.00 | 0.00 | 0.00 | 86 | 1014.9 |
| 20260508055648 | 50 | 161 | 1.0 | 1.0 | 0.00 | 0.00 | 0.00 | 86 | 1015.0 |
| 20260508055145 | 50 | 183 | 1.0 | 2.0 | 0.00 | 0.00 | 0.00 | 86 | 1014.8 |
| 20260508054641 | 50 | 185 | 1.0 | 1.0 | 0.00 | 0.00 | 0.00 | 86 | 1014.9 |
| 20260508054139 | 50 | 210 | 2.0 | 2.0 | 0.00 | 0.00 | 0.00 | 86 | 1014.8 |
| 20260508053636 | 50 | 207 | 0.0 | 1.0 | 0.00 | 0.00 | 0.00 | 86 | 1014.8 |
| 20260508053133 | 50 | 158 | 0.0 | 0.0 | 0.00 | 0.00 | 0.00 | 86 | 1015.1 |
| 20260508052631 | 50 | 203 | 0.0 | 0.0 | 0.00 | 0.00 | 0.00 | 85 | 1015.0 |
| 20260508052128 | 50 | 190 | 0.0 | 0.0 | 0.00 | 0.00 | 0.00 | 85 | 1014.9 |
| 20260508051624 | 50 | 188 | 0.0 | 0.0 | 0.00 | 0.00 | 0.00 | 85 | 1014.8 |
| 20260508051119 | 50 | 174 | 0.0 | 0.0 | 0.00 | 0.00 | 0.00 | 85 | 1014.6 |
| 20260508050615 | 50 | 159 | 0.0 | 0.0 | 0.00 | 0.00 | 0.00 | 84 | 1014.8 |
| 20260508050114 | 50 | 169 | 0.0 | 0.0 | 0.00 | 0.00 | 0.00 | 84 | 1014.8 |
| 20260508045609 | 50 | 189 | 0.0 | 0.0 | 0.00 | 0.00 | 0.00 | 84 | 1014.7 |
| 20260508045107 | 51 | 46 | 0.0 | 0.0 | 0.00 | 0.00 | 0.00 | 83 | 1014.7 |
| 20260508044604 | 51 | 198 | 0.0 | 1.0 | 0.00 | 0.00 | 0.00 | 83 | 1014.8 |
| 20260508044100 | 51 | 140 | 0.0 | 2.0 | 0.00 | 0.00 | 0.00 | 83 | 1014.6 |
| 20260508043557 | 52 | 168 | 3.0 | 3.0 | 0.00 | 0.00 | 0.00 | 82 | 1014.6 |
| 20260508043054 | 52 | 198 | 0.0 | 1.0 | 0.00 | 0.00 | 0.00 | 82 | 1014.4 |
| 20260508042551 | 51 | 164 | 1.0 | 1.0 | 0.00 | 0.00 | 0.00 | 82 | 1014.5 |
| 20260508042048 | 52 | 197 | 1.0 | 2.0 | 0.00 | 0.00 | 0.00 | 81 | 1014.6 |
| 20260508041544 | 52 | 186 | 1.0 | 1.0 | 0.00 | 0.00 | 0.00 | 80 | 1014.4 |
| 20260508041041 | 52 | 230 | 2.0 | 2.0 | 0.00 | 0.00 | 0.00 | 80 | 1014.3 |
| 20260508040538 | 52 | 172 | 1.0 | 1.0 | 0.00 | 0.00 | 0.00 | 80 | 1014.3 |
| 20260508040036 | 52 | 127 | 1.0 | 2.0 | 0.00 | 0.41 | 0.41 | 80 | 1014.4 |
| 20260508035532 | 52 | 178 | 0.0 | 1.0 | 0.00 | 0.41 | 0.41 | 79 | 1014.4 |
| 20260508035029 | 53 | 165 | 0.0 | 1.0 | 0.00 | 0.41 | 0.41 | 79 | 1014.2 |
| 20260508034526 | 53 | 206 | 1.0 | 2.0 | 0.00 | 0.41 | 0.41 | 79 | 1014.4 |
| 20260508034023 | 53 | 205 | 0.0 | 0.0 | 0.00 | 0.41 | 0.41 | 78 | 1014.4 |
| 20260508033521 | 53 | 180 | 0.0 | 0.0 | 0.00 | 0.41 | 0.41 | 77 | 1014.3 |
| 20260508033019 | 54 | 180 | 0.0 | 0.0 | 0.00 | 0.41 | 0.41 | 76 | 1014.6 |
| 20260508032515 | 54 | 164 | 0.0 | 0.0 | 0.00 | 0.41 | 0.41 | 76 | 1014.3 |
| 20260508032013 | 55 | 202 | 0.0 | 0.0 | 0.00 | 0.41 | 0.41 | 75 | 1014.3 |
| 20260508031510 | 55 | 219 | 0.0 | 0.0 | 0.00 | 0.41 | 0.41 | 73 | 1014.4 |
| 20260508031005 | 55 | 262 | 0.0 | 3.0 | 0.00 | 0.41 | 0.41 | 72 | 1014.3 |
| 20260508030503 | 56 | 186 | 0.0 | 1.0 | 0.00 | 0.41 | 0.41 | 72 | 1014.3 |
| 20260508030001 | 56 | 341 | 3.0 | 3.0 | 0.00 | 0.41 | 0.41 | 71 | 1014.3 |
| 20260508025456 | 56 | 355 | 3.0 | 3.0 | 0.00 | 0.41 | 0.41 | 71 | 1014.3 |
| 20260508024954 | 56 | 343 | 2.0 | 3.0 | 0.00 | 0.41 | 0.41 | 71 | 1014.1 |
| 20260508024449 | 56 | 286 | 1.0 | 2.0 | 0.00 | 0.41 | 0.41 | 71 | 1014.2 |
| 20260508023946 | 56 | 357 | 1.0 | 2.0 | 0.00 | 0.41 | 0.41 | 70 | 1013.9 |
| 20260508023443 | 56 | 5 | 2.0 | 3.0 | 0.00 | 0.41 | 0.41 | 70 | 1014.1 |
| 20260508022941 | 57 | 301 | 3.0 | 3.0 | 0.00 | 0.41 | 0.41 | 69 | 1013.8 |
| 20260508022436 | 57 | 346 | 4.0 | 6.0 | 0.00 | 0.41 | 0.41 | 68 | 1013.9 |
| 20260508021933 | 57 | 346 | 3.0 | 6.0 | 0.00 | 0.41 | 0.41 | 67 | 1013.8 |
| 20260508021429 | 58 | 340 | 3.0 | 6.0 | 0.00 | 0.41 | 0.41 | 67 | 1013.8 |
| 20260508020925 | 58 | 336 | 6.0 | 8.0 | 0.00 | 0.41 | 0.41 | 66 | 1013.7 |
| 20260508020423 | 58 | 339 | 4.0 | 5.0 | 0.00 | 0.41 | 0.41 | 66 | 1013.6 |
| 20260508015920 | 58 | 344 | 4.0 | 6.0 | 0.00 | 0.41 | 0.41 | 65 | 1013.6 |
| 20260508015418 | 58 | 25 | 3.0 | 6.0 | 0.00 | 0.41 | 0.41 | 65 | 1013.5 |
| 20260508014914 | 58 | 355 | 4.0 | 9.0 | 0.00 | 0.41 | 0.41 | 65 | 1013.4 |
| 20260508014411 | 58 | 354 | 7.0 | 11.0 | 0.00 | 0.41 | 0.41 | 65 | 1013.3 |
| 20260508013906 | 59 | 347 | 3.0 | 7.0 | 0.00 | 0.41 | 0.41 | 64 | 1013.3 |
| 20260508013403 | 59 | 356 | 6.0 | 9.0 | 0.00 | 0.41 | 0.41 | 64 | 1013.1 |
| 20260508012901 | 59 | 346 | 7.0 | 9.0 | 0.00 | 0.41 | 0.41 | 64 | 1013.3 |
| 20260508012357 | 59 | 359 | 3.0 | 7.0 | 0.00 | 0.41 | 0.41 | 64 | 1012.8 |
| 20260508011855 | 59 | 328 | 3.0 | 5.0 | 0.00 | 0.41 | 0.41 | 64 | 1012.9 |
| 20260508011353 | 59 | 329 | 5.0 | 10.0 | 0.00 | 0.41 | 0.41 | 64 | 1012.8 |
| 20260508010849 | 59 | 351 | 4.0 | 11.0 | 0.00 | 0.41 | 0.41 | 64 | 1012.7 |
| 20260508010347 | 59 | 349 | 7.0 | 10.0 | 0.00 | 0.41 | 0.41 | 64 | 1012.5 |
| 20260508005844 | 59 | 341 | 5.0 | 11.0 | 0.00 | 0.41 | 0.41 | 64 | 1012.3 |
| 20260508005341 | 59 | 331 | 7.0 | 9.0 | 0.00 | 0.41 | 0.41 | 64 | 1012.2 |
| 20260508004837 | 59 | 0 | 7.0 | 10.0 | 0.00 | 0.41 | 0.41 | 64 | 1012.0 |
| 20260508004333 | 59 | 359 | 7.0 | 9.0 | 0.00 | 0.41 | 0.41 | 65 | 1012.1 |
| 20260508003830 | 60 | 10 | 7.0 | 9.0 | 0.00 | 0.41 | 0.41 | 65 | 1012.1 |
| 20260508003327 | 60 | 14 | 9.0 | 13.0 | 0.00 | 0.41 | 0.41 | 65 | 1012.0 |
| 20260508002824 | 60 | 357 | 9.0 | 13.0 | 0.00 | 0.41 | 0.41 | 66 | 1011.8 |
| 20260508002321 | 60 | 347 | 7.0 | 14.0 | 0.00 | 0.41 | 0.41 | 67 | 1011.6 |
| 20260508001817 | 60 | 311 | 3.0 | 7.0 | 0.00 | 0.41 | 0.41 | 68 | 1011.5 |
| 20260508001313 | 61 | 12 | 5.0 | 9.0 | 0.00 | 0.41 | 0.41 | 67 | 1011.2 |
| 20260508000809 | 61 | 321 | 7.0 | 13.0 | 0.00 | 0.41 | 0.41 | 67 | 1011.2 |
| 20260508000306 | 61 | 7 | 10.0 | 14.0 | 0.00 | 0.41 | 0.41 | 67 | 1010.8 |
| 20260507235802 | 62 | 343 | 9.0 | 17.0 | 0.00 | 0.41 | 0.41 | 67 | 1010.8 |
| 20260507235300 | 62 | 2 | 11.0 | 16.0 | 0.00 | 0.41 | 0.41 | 67 | 1010.7 |
| 20260507234757 | 62 | 342 | 11.0 | 18.0 | 0.00 | 0.41 | 0.41 | 66 | 1011.0 |
| 20260507234253 | 63 | 5 | 9.0 | 15.0 | 0.00 | 0.41 | 0.41 | 66 | 1010.7 |
| 20260507233750 | 63 | 12 | 11.0 | 14.0 | 0.00 | 0.41 | 0.41 | 66 | 1010.5 |
| 20260507233248 | 64 | 4 | 10.0 | 17.0 | 0.00 | 0.41 | 0.41 | 66 | 1010.4 |
| 20260507232745 | 65 | 12 | 9.0 | 13.0 | 0.00 | 0.41 | 0.41 | 66 | 1010.4 |
| 20260507232242 | 65 | 325 | 7.0 | 13.0 | 0.00 | 0.41 | 0.41 | 65 | 1010.2 |
| 20260507231738 | 66 | 316 | 13.0 | 16.0 | 0.00 | 0.41 | 0.41 | 65 | 1010.4 |
| 20260507231235 | 66 | 332 | 10.0 | 14.0 | 0.00 | 0.41 | 0.41 | 65 | 1010.1 |
| 20260507230732 | 67 | 30 | 9.0 | 13.0 | 0.00 | 0.41 | 0.41 | 65 | 1010.3 |
| 20260507230230 | 67 | 353 | 14.0 | 16.0 | 0.00 | 0.41 | 0.41 | 63 | 1010.2 |
| 20260507225729 | 68 | 341 | 9.0 | 15.0 | 0.00 | 0.41 | 0.41 | 64 | 1010.3 |
| 20260507225226 | 69 | 325 | 6.0 | 9.0 | 0.00 | 0.41 | 0.41 | 63 | 1009.7 |
| 20260507224721 | 69 | 20 | 8.0 | 13.0 | 0.00 | 0.41 | 0.41 | 63 | 1009.8 |
| 20260507224218 | 70 | 344 | 7.0 | 9.0 | 0.00 | 0.41 | 0.41 | 64 | 1009.8 |
| 20260507223714 | 70 | 10 | 9.0 | 13.0 | 0.00 | 0.41 | 0.41 | 64 | 1009.6 |
| 20260507223211 | 70 | 354 | 6.0 | 13.0 | 0.00 | 0.41 | 0.41 | 64 | 1009.3 |
| 20260507222708 | 70 | 352 | 7.0 | 14.0 | 0.00 | 0.41 | 0.41 | 64 | 1009.3 |
| 20260507222204 | 71 | 344 | 5.0 | 8.0 | 0.00 | 0.41 | 0.41 | 65 | 1008.9 |
| 20260507221701 | 71 | 349 | 8.0 | 9.0 | 0.00 | 0.41 | 0.41 | 66 | 1009.0 |
| 20260507221157 | 71 | 327 | 7.0 | 8.0 | 0.00 | 0.41 | 0.41 | 66 | 1008.9 |
| 20260507220654 | 72 | 345 | 6.0 | 9.0 | 0.00 | 0.41 | 0.41 | 65 | 1008.8 |
| 20260507220153 | 72 | 352 | 7.0 | 8.0 | 0.00 | 0.41 | 0.41 | 65 | 1008.7 |
| 20260507215648 | 72 | 352 | 9.0 | 10.0 | 0.00 | 0.41 | 0.41 | 65 | 1008.5 |
| 20260507215146 | 72 | 304 | 4.0 | 10.0 | 0.00 | 0.41 | 0.41 | 65 | 1008.5 |
| 20260507214643 | 73 | 30 | 4.0 | 8.0 | 0.00 | 0.41 | 0.41 | 65 | 1008.6 |
| 20260507214139 | 73 | 357 | 11.0 | 13.0 | 0.00 | 0.41 | 0.41 | 64 | 1008.3 |
| 20260507213635 | 73 | 349 | 7.0 | 15.0 | 0.00 | 0.41 | 0.41 | 63 | 1008.2 |
| 20260507213133 | 74 | 5 | 10.0 | 17.0 | 0.00 | 0.41 | 0.41 | 63 | 1008.4 |
| 20260507212629 | 74 | 4 | 9.0 | 11.0 | 0.00 | 0.41 | 0.41 | 64 | 1008.3 |
| 20260507212125 | 75 | 347 | 10.0 | 14.0 | 0.00 | 0.41 | 0.41 | 62 | 1008.1 |
| 20260507211623 | 75 | 348 | 8.0 | 10.0 | 0.00 | 0.41 | 0.41 | 62 | 1008.2 |
| 20260507211118 | 75 | 341 | 4.0 | 7.0 | 0.00 | 0.41 | 0.41 | 62 | 1008.0 |
| 20260507210616 | 75 | 314 | 2.0 | 3.0 | 0.00 | 0.41 | 0.41 | 63 | 1007.9 |
| 20260507210112 | 75 | 317 | 4.0 | 8.0 | 0.00 | 0.41 | 0.41 | 62 | 1008.0 |
| 20260507205609 | 74 | 353 | 8.0 | 9.0 | 0.00 | 0.41 | 0.41 | 63 | 1008.2 |
| 20260507205105 | 74 | 344 | 5.0 | 6.0 | 0.00 | 0.41 | 0.41 | 70 | 1008.0 |
| 20260507204602 | 74 | 262 | 3.0 | 5.0 | 0.00 | 0.41 | 0.41 | 74 | 1007.9 |